Time;durP1;ratioP1;P1;durP2;ratioP2;P2;SDS_P1;SDS_P2;PMS_P1;PMS_P2;Temp;Humidity;BMP_temperature;BMP_pressure;BME280_temperature;BME280_humidity;BME280_pressure;Samples;Min_cycle;Max_cycle;Signal;HPM_P1;HPM_P2
2022/02/20 00:01:28;;;;;;;7.90;1.70;;;;;;;6.96;48.55;95326.63;5028576;28;20025;-65
2022/02/20 00:03:53;;;;;;;7.15;1.73;;;;;;;6.86;48.45;95333.81;5030071;28;20029;-65
2022/02/20 00:06:19;;;;;;;4.40;1.65;;;;;;;6.87;49.36;95345.97;5028762;28;20386;-65
2022/02/20 00:08:44;;;;;;;5.78;1.13;;;;;;;6.82;49.14;95340.72;5028503;28;20462;-65
2022/02/20 00:11:10;;;;;;;6.30;1.90;;;;;;;7.06;48.30;95293.19;5029490;28;20026;-65
2022/02/20 00:13:35;;;;;;;5.63;1.80;;;;;;;7.08;48.53;95358.00;5031583;28;20029;-65
2022/02/20 00:16:01;;;;;;;6.60;2.13;;;;;;;7.27;48.02;95343.03;5033687;28;20386;-65
2022/02/20 00:18:27;;;;;;;5.85;1.58;;;;;;;7.43;47.83;95351.63;5033427;28;20599;-64
2022/02/20 00:20:52;;;;;;;5.82;1.52;;;;;;;7.14;48.13;95340.22;5032101;28;20022;-65
2022/02/20 00:23:18;;;;;;;5.07;1.30;;;;;;;7.17;48.17;95321.97;5033680;28;20670;-66
2022/02/20 00:25:44;;;;;;;4.78;1.42;;;;;;;7.65;47.26;95364.41;5032290;28;20025;-65
2022/02/20 00:28:10;;;;;;;6.82;1.98;;;;;;;7.29;48.28;95364.69;5033015;28;20053;-65
2022/02/20 00:30:36;;;;;;;5.85;1.48;;;;;;;7.64;46.59;95299.28;5033026;28;20489;-65
2022/02/20 00:33:02;;;;;;;5.60;1.58;;;;;;;7.30;47.24;95347.75;5033265;28;20021;-64
2022/02/20 00:35:28;;;;;;;6.72;1.30;;;;;;;7.34;47.13;95321.53;5033273;28;20028;-64
2022/02/20 00:37:54;;;;;;;4.68;1.77;;;;;;;7.95;45.23;95312.19;5031972;28;20405;-64
2022/02/20 00:40:20;;;;;;;3.97;1.45;;;;;;;7.75;45.98;95321.94;5033005;28;20512;-66
2022/02/20 00:42:45;;;;;;;3.97;1.55;;;;;;;7.88;45.56;95331.03;5031406;28;20041;-65
2022/02/20 00:45:10;;;;;;;2.78;1.15;;;;;;;7.35;46.11;95354.06;5032910;28;20044;-66
2022/02/20 00:47:36;;;;;;;3.67;1.30;;;;;;;7.35;45.87;95339.00;5033113;28;20033;-65
2022/02/20 00:50:01;;;;;;;3.70;1.95;;;;;;;7.56;45.14;95334.28;5032722;28;20465;-66
2022/02/20 00:52:27;;;;;;;5.00;1.75;;;;;;;7.54;44.80;95331.16;5032976;28;20025;-64
2022/02/20 00:54:52;;;;;;;5.00;1.45;;;;;;;8.47;42.91;95326.41;5033129;28;20064;-65
2022/02/20 00:57:17;;;;;;;2.05;1.08;;;;;;;7.25;45.20;95331.13;5032598;28;20049;-65
2022/02/20 00:59:43;;;;;;;7.40;1.38;;;;;;;7.99;43.41;95326.44;5032550;28;20112;-66
2022/02/20 01:02:08;;;;;;;4.00;1.17;;;;;;;8.34;42.55;95333.97;5032872;28;20052;-66
2022/02/20 01:04:34;;;;;;;3.72;0.90;;;;;;;7.59;43.45;95333.75;5032962;28;20025;-65
2022/02/20 01:06:59;;;;;;;4.70;1.30;;;;;;;8.03;43.24;95333.53;5031566;28;20098;-65
2022/02/20 01:09:24;;;;;;;5.68;1.58;;;;;;;8.11;42.41;95328.69;5031273;28;20022;-65
2022/02/20 01:11:50;;;;;;;3.45;1.10;;;;;;;8.16;42.55;95344.53;5032092;28;20037;-65
2022/02/20 01:14:15;;;;;;;2.47;1.10;;;;;;;7.55;42.70;95367.13;5032515;28;20037;-65
2022/02/20 01:16:41;;;;;;;2.83;1.02;;;;;;;7.75;42.67;95371.44;5032712;28;20060;-65
2022/02/20 01:19:06;;;;;;;3.22;1.33;;;;;;;7.74;42.15;95362.72;5032446;28;20436;-65
2022/02/20 01:21:32;;;;;;;3.22;1.10;;;;;;;7.88;41.82;95370.78;5032511;28;20030;-66
2022/02/20 01:23:57;;;;;;;3.88;1.02;;;;;;;7.71;41.81;95367.78;5032514;28;20028;-65
2022/02/20 01:26:22;;;;;;;2.88;0.95;;;;;;;7.74;41.97;95357.44;5032070;28;20059;-66
2022/02/20 01:28:48;;;;;;;3.28;1.23;;;;;;;7.75;41.65;95380.19;5032071;28;20397;-66
2022/02/20 01:31:13;;;;;;;7.63;1.92;;;;;;;7.28;42.34;95376.34;5032094;28;20087;-65
2022/02/20 01:33:38;;;;;;;4.20;0.90;;;;;;;7.23;42.39;95404.72;5032206;28;20037;-66
2022/02/20 01:36:04;;;;;;;2.53;0.93;;;;;;;7.61;41.40;95410.22;5031064;28;20120;-65
2022/02/20 01:38:30;;;;;;;3.88;1.05;;;;;;;7.04;41.35;95375.47;5030914;28;20029;-65
2022/02/20 01:40:56;;;;;;;2.33;0.93;;;;;;;7.25;41.39;95405.22;5032059;28;20037;-65
2022/02/20 01:43:22;;;;;;;1.85;0.50;;;;;;;7.01;42.01;95415.69;5031634;28;20652;-65
2022/02/20 01:45:48;;;;;;;1.33;0.95;;;;;;;7.44;40.40;95410.63;5031802;28;20034;-65
2022/02/20 01:48:13;;;;;;;3.15;0.82;;;;;;;7.30;39.67;95418.41;5032113;28;20147;-65
2022/02/20 01:50:39;;;;;;;2.70;0.77;;;;;;;7.37;39.89;95418.09;5031807;28;20064;-65
2022/02/20 01:53:04;;;;;;;2.55;0.70;;;;;;;7.23;39.51;95400.22;5031944;28;20025;-65
2022/02/20 01:55:29;;;;;;;2.30;0.60;;;;;;;7.10;38.86;95437.06;5030763;28;20088;-64
2022/02/20 01:57:55;;;;;;;3.83;0.70;;;;;;;6.72;38.46;95424.31;5031381;28;20486;-65
2022/02/20 02:00:22;;;;;;;3.13;0.95;;;;;;;8.05;37.71;95389.69;5030136;28;20025;-65
2022/02/20 02:02:48;;;;;;;3.65;0.63;;;;;;;7.39;38.25;95423.91;5030502;28;20485;-65
2022/02/20 02:05:15;;;;;;;2.00;0.60;;;;;;;7.41;38.35;95388.16;5031785;28;20029;-65
2022/02/20 02:07:40;;;;;;;1.58;0.70;;;;;;;7.75;37.48;95387.34;5031751;28;20025;-65
2022/02/20 02:10:06;;;;;;;2.05;0.60;;;;;;;7.44;38.51;95369.09;5031432;28;20025;-65
2022/02/20 02:12:33;;;;;;;2.60;1.05;;;;;;;7.89;37.48;95382.19;5031010;28;20029;-65
2022/02/20 02:15:02;;;;;;;4.03;1.00;;;;;;;7.46;37.95;95397.91;5030083;28;20025;-65
2022/02/20 02:17:29;;;;;;;2.45;0.90;;;;;;;7.74;36.99;95409.59;5031312;28;20029;-65
2022/02/20 02:19:54;;;;;;;3.40;0.80;;;;;;;7.22;37.99;95408.44;5029861;28;20025;-65
2022/02/20 02:22:28;;;;;;;2.45;0.80;;;;;;;7.85;37.56;95400.47;5031086;28;20025;-65
2022/02/20 02:24:55;;;;;;;0.63;0.50;;;;;;;7.62;37.86;95406.50;5030001;28;20030;-64
2022/02/20 02:27:21;;;;;;;1.85;0.95;;;;;;;6.94;40.25;95397.50;5031062;28;20017;-65
2022/02/20 02:29:48;;;;;;;1.27;0.55;;;;;;;6.51;40.84;95401.69;5030093;28;20021;-65
2022/02/20 02:32:15;;;;;;;3.10;0.73;;;;;;;6.96;40.94;95384.78;5031077;28;20034;-64
2022/02/20 02:34:44;;;;;;;6.55;0.82;;;;;;;6.67;42.94;95397.13;5031158;28;20025;-66
2022/02/20 02:37:10;;;;;;;4.43;0.95;;;;;;;6.52;43.96;95361.00;5030674;28;20060;-64
2022/02/20 02:39:37;;;;;;;1.48;0.60;;;;;;;6.50;43.15;95394.84;5030749;28;20033;-64
2022/02/20 02:42:04;;;;;;;2.85;0.60;;;;;;;6.79;42.33;95424.00;5030613;28;20477;-65
2022/02/20 02:44:29;;;;;;;2.85;1.00;;;;;;;6.35;44.03;95381.69;5030479;28;20112;-64
2022/02/20 02:46:55;;;;;;;2.20;0.95;;;;;;;6.25;45.88;95372.75;5030913;28;20104;-65
2022/02/20 02:49:21;;;;;;;4.28;0.60;;;;;;;5.76;48.54;95420.09;5030868;28;20531;-64
2022/02/20 02:51:46;;;;;;;2.83;0.80;;;;;;;6.08;47.89;95403.16;5030564;28;20025;-64
2022/02/20 02:54:17;;;;;;;1.85;0.63;;;;;;;5.98;50.34;95433.81;5030844;28;20460;-65
2022/02/20 02:56:43;;;;;;;1.38;0.60;;;;;;;5.16;52.80;95364.44;5030587;28;20022;-65
2022/02/20 02:59:09;;;;;;;1.70;0.52;;;;;;;5.15;53.12;95434.06;5029146;28;20067;-65
2022/02/20 03:01:35;;;;;;;1.88;0.93;;;;;;;6.05;53.11;95441.47;5029086;28;20025;-65
2022/02/20 03:04:00;;;;;;;4.35;0.80;;;;;;;5.95;52.27;95415.88;5029449;28;20084;-65
2022/02/20 03:06:26;;;;;;;2.60;0.80;;;;;;;5.81;52.88;95451.75;5030469;28;20032;-65
2022/02/20 03:08:51;;;;;;;3.33;1.30;;;;;;;5.72;52.65;95434.88;5029290;28;20398;-65
2022/02/20 03:11:18;;;;;;;1.08;0.70;;;;;;;4.83;54.46;95397.38;5029691;28;20033;-65
2022/02/20 03:13:44;;;;;;;1.58;0.40;;;;;;;4.78;54.46;95386.03;5028816;28;20037;-65
2022/02/20 03:16:10;;;;;;;0.85;0.55;;;;;;;4.77;56.55;95424.00;5030513;28;20029;-65
2022/02/20 03:18:36;;;;;;;3.50;0.65;;;;;;;5.21;56.31;95440.13;5030344;28;20497;-64
2022/02/20 03:21:04;;;;;;;1.08;0.60;;;;;;;5.06;57.19;95429.56;5030351;28;20032;-64
2022/02/20 03:23:30;;;;;;;2.13;0.65;;;;;;;5.60;56.40;95456.25;5030508;28;20056;-65
2022/02/20 03:25:56;;;;;;;5.72;1.05;;;;;;;4.90;57.71;95394.50;5030453;28;20057;-64
2022/02/20 03:28:22;;;;;;;2.47;0.55;;;;;;;4.73;58.57;95431.63;5029636;28;20064;-64
2022/02/20 03:30:47;;;;;;;3.25;0.85;;;;;;;5.23;59.28;95453.88;5029921;28;20045;-64
2022/02/20 03:33:13;;;;;;;2.47;0.75;;;;;;;4.75;59.41;95403.16;5029160;28;20022;-65
2022/02/20 03:35:39;;;;;;;1.83;0.90;;;;;;;5.14;60.04;95429.06;5030642;28;20161;-64
2022/02/20 03:38:05;;;;;;;3.42;1.10;;;;;;;4.86;60.60;95374.97;5030639;28;20109;-64
2022/02/20 03:40:31;;;;;;;3.10;1.10;;;;;;;5.39;59.57;95407.97;5029940;28;20191;-64
2022/02/20 03:42:56;;;;;;;3.13;1.20;;;;;;;5.42;59.65;95419.84;5029825;28;20025;-64
2022/02/20 03:45:22;;;;;;;1.75;0.63;;;;;;;4.93;60.12;95434.31;5029949;28;20025;-64
2022/02/20 03:47:48;;;;;;;2.42;1.00;;;;;;;5.38;58.90;95424.88;5032611;28;20489;-65
2022/02/20 03:50:14;;;;;;;1.95;0.80;;;;;;;5.07;58.99;95381.88;5033747;28;20062;-65
2022/02/20 03:52:39;;;;;;;2.20;0.70;;;;;;;5.51;57.95;95439.38;5032688;28;20032;-65
2022/02/20 03:55:08;;;;;;;2.80;1.10;;;;;;;6.28;55.64;95421.59;5034146;28;20022;-65
2022/02/20 03:57:34;;;;;;;3.65;1.13;;;;;;;5.60;56.38;95363.91;5033484;28;20521;-65
2022/02/20 04:00:00;;;;;;;2.30;0.90;;;;;;;5.65;56.34;95405.34;5033553;28;20044;-65
2022/02/20 04:02:34;;;;;;;3.47;1.15;;;;;;;6.43;54.03;95412.81;5033626;28;20017;-65
2022/02/20 04:05:00;;;;;;;1.42;0.80;;;;;;;6.03;53.69;95376.75;5033868;28;20032;-65
2022/02/20 04:07:26;;;;;;;2.50;0.93;;;;;;;6.86;51.82;95426.34;5032626;28;20025;-67
2022/02/20 04:09:51;;;;;;;2.13;0.85;;;;;;;6.22;50.88;95312.50;5033462;28;20097;-64
2022/02/20 04:12:16;;;;;;;1.83;0.75;;;;;;;6.35;51.77;95366.63;5033276;28;20104;-64
2022/02/20 04:14:42;;;;;;;1.48;0.75;;;;;;;7.17;49.94;95448.94;5033918;28;20021;-64
2022/02/20 04:17:07;;;;;;;2.95;1.00;;;;;;;7.12;50.10;95413.78;5033704;28;20711;-64
2022/02/20 04:19:33;;;;;;;2.40;0.65;;;;;;;5.62;52.47;95409.28;5033492;28;20029;-64
2022/02/20 04:21:58;;;;;;;3.38;0.90;;;;;;;6.53;50.19;95412.78;5033747;28;20637;-64
2022/02/20 04:24:24;;;;;;;3.33;0.95;;;;;;;6.55;50.08;95444.22;5033853;28;20029;-64
2022/02/20 04:26:49;;;;;;;4.03;0.80;;;;;;;6.67;49.15;95429.63;5033715;28;20373;-64
2022/02/20 04:29:15;;;;;;;3.85;0.88;;;;;;;7.50;46.46;95414.81;5033038;28;20021;-64
2022/02/20 04:31:41;;;;;;;4.03;0.90;;;;;;;7.09;47.32;95436.28;5033150;28;20056;-64
2022/02/20 04:34:06;;;;;;;1.08;0.70;;;;;;;6.84;48.21;95404.69;5032578;28;20026;-64
2022/02/20 04:36:35;;;;;;;3.88;0.77;;;;;;;6.87;47.69;95409.44;5033649;28;20040;-64
2022/02/20 04:39:03;;;;;;;2.70;0.98;;;;;;;6.71;47.34;95420.09;5033139;28;20087;-64
2022/02/20 04:41:29;;;;;;;1.70;0.80;;;;;;;6.83;47.01;95417.13;5032999;28;20025;-64
2022/02/20 04:43:54;;;;;;;4.72;1.05;;;;;;;7.16;45.93;95405.00;5033063;28;20055;-64
2022/02/20 04:46:20;;;;;;;2.47;0.88;;;;;;;6.91;46.55;95379.53;5032980;28;20517;-65
2022/02/20 04:48:45;;;;;;;3.22;1.00;;;;;;;7.67;45.22;95419.72;5033106;28;20025;-65
2022/02/20 04:51:10;;;;;;;0.80;0.52;;;;;;;7.64;45.02;95407.81;5032923;28;20520;-64
2022/02/20 04:53:36;;;;;;;2.83;1.00;;;;;;;7.25;45.71;95413.94;5033169;28;20021;-64
2022/02/20 04:56:01;;;;;;;1.73;0.60;;;;;;;7.25;46.38;95434.31;5033023;28;20048;-66
2022/02/20 04:58:27;;;;;;;2.00;0.60;;;;;;;7.55;45.36;95422.72;5031624;28;20057;-64
2022/02/20 05:00:52;;;;;;;1.83;1.05;;;;;;;7.25;46.72;95440.41;5032775;28;20075;-65
2022/02/20 05:03:17;;;;;;;2.90;0.93;;;;;;;6.70;46.76;95400.00;5032841;28;20029;-64
2022/02/20 05:05:43;;;;;;;2.08;0.70;;;;;;;7.22;46.45;95448.91;5033027;28;20440;-64
2022/02/20 05:08:08;;;;;;;1.73;1.00;;;;;;;7.99;45.27;95427.91;5033042;28;20013;-64
2022/02/20 05:10:33;;;;;;;1.65;0.75;;;;;;;7.00;46.77;95430.75;5032345;28;20017;-64
2022/02/20 05:12:59;;;;;;;1.58;0.93;;;;;;;8.59;44.48;95430.19;5032191;28;20052;-65
2022/02/20 05:15:24;;;;;;;1.80;0.70;;;;;;;7.97;45.03;95423.94;5032417;28;20017;-65
2022/02/20 05:17:50;;;;;;;2.75;0.90;;;;;;;7.54;46.63;95402.63;5032744;28;20112;-64
2022/02/20 05:20:15;;;;;;;4.93;1.35;;;;;;;7.22;47.89;95454.19;5032321;28;20100;-64
2022/02/20 05:22:41;;;;;;;3.20;0.80;;;;;;;7.60;46.42;95398.84;5032746;28;20045;-64
2022/02/20 05:25:07;;;;;;;1.67;0.70;;;;;;;7.33;47.15;95436.41;5032593;28;20462;-65
2022/02/20 05:27:33;;;;;;;2.22;1.10;;;;;;;8.03;45.89;95460.69;5030741;28;20460;-65
2022/02/20 05:29:59;;;;;;;3.08;0.80;;;;;;;7.12;47.72;95464.84;5030717;28;20033;-64
2022/02/20 05:32:25;;;;;;;3.25;0.70;;;;;;;7.43;48.45;95459.34;5032320;28;20026;-64
2022/02/20 05:34:55;;;;;;;2.17;0.88;;;;;;;7.77;47.12;95446.88;5032377;28;20076;-64
2022/02/20 05:37:21;;;;;;;2.40;0.93;;;;;;;7.59;46.99;95415.03;5032156;28;20092;-64
2022/02/20 05:39:47;;;;;;;2.00;0.68;;;;;;;7.36;47.72;95451.69;5032045;28;20049;-64
2022/02/20 05:42:13;;;;;;;3.92;1.00;;;;;;;7.56;46.62;95408.41;5032030;28;20112;-64
2022/02/20 05:44:38;;;;;;;3.58;1.65;;;;;;;6.90;48.25;95430.81;5031452;28;20053;-65
2022/02/20 05:47:04;;;;;;;2.75;0.95;;;;;;;7.80;46.69;95448.19;5032051;28;20385;-65
2022/02/20 05:49:29;;;;;;;2.97;1.10;;;;;;;7.38;47.36;95436.34;5031757;28;20504;-65
2022/02/20 05:51:55;;;;;;;2.80;0.90;;;;;;;7.48;47.29;95443.44;5031622;28;20041;-65
2022/02/20 05:54:21;;;;;;;2.80;1.05;;;;;;;7.17;47.56;95454.22;5031815;28;20024;-65
2022/02/20 05:56:47;;;;;;;3.38;0.93;;;;;;;7.71;46.46;95453.28;5031985;28;20025;-65
2022/02/20 05:59:12;;;;;;;0.98;0.40;;;;;;;7.09;48.04;95459.28;5029976;28;20033;-65
2022/02/20 06:01:38;;;;;;;1.88;1.00;;;;;;;7.84;46.52;95457.19;5031286;28;20488;-65
2022/02/20 06:04:04;;;;;;;3.58;0.90;;;;;;;8.40;45.39;95448.72;5031679;28;20105;-65
2022/02/20 06:06:32;;;;;;;2.25;0.88;;;;;;;7.67;46.12;95436.38;5032055;28;20059;-64
2022/02/20 06:09:02;;;;;;;1.85;0.82;;;;;;;7.42;46.48;95447.97;5031405;28;20029;-65
2022/02/20 06:11:27;;;;;;;3.88;1.20;;;;;;;7.59;46.95;95479.34;5030502;28;20030;-65
2022/02/20 06:13:53;;;;;;;2.55;0.63;;;;;;;7.67;47.01;95481.38;5031039;28;20078;-65
2022/02/20 06:16:19;;;;;;;2.67;1.00;;;;;;;7.11;47.46;95465.88;5029895;28;20033;-64
2022/02/20 06:18:47;;;;;;;2.72;1.00;;;;;;;7.80;46.15;95477.34;5029955;28;20461;-65
2022/02/20 06:21:13;;;;;;;3.88;1.13;;;;;;;7.42;47.21;95470.97;5029823;28;20126;-65
2022/02/20 06:23:38;;;;;;;3.92;0.80;;;;;;;8.23;45.51;95480.91;5031222;28;20049;-65
2022/02/20 06:26:04;;;;;;;2.33;0.70;;;;;;;7.66;46.20;95449.91;5029865;28;20025;-65
2022/02/20 06:28:29;;;;;;;1.92;0.75;;;;;;;7.40;46.56;95452.75;5030521;28;20022;-65
2022/02/20 06:30:55;;;;;;;2.53;0.80;;;;;;;7.98;45.74;95504.97;5030732;28;20041;-65
2022/02/20 06:33:20;;;;;;;2.67;0.90;;;;;;;7.54;46.27;95500.56;5031224;28;20026;-65
2022/02/20 06:35:46;;;;;;;1.90;0.60;;;;;;;7.44;46.76;95500.63;5031087;28;20017;-64
2022/02/20 06:38:11;;;;;;;1.73;0.82;;;;;;;7.69;45.92;95497.81;5029607;28;20022;-64
2022/02/20 06:40:36;;;;;;;2.53;0.65;;;;;;;7.64;46.71;95487.25;5030687;28;20021;-64
2022/02/20 06:43:02;;;;;;;3.25;0.73;;;;;;;7.70;46.85;95509.97;5030567;28;20363;-64
2022/02/20 06:45:28;;;;;;;2.28;1.00;;;;;;;7.77;45.73;95499.06;5029234;28;20037;-66
2022/02/20 06:47:53;;;;;;;2.75;0.90;;;;;;;7.65;46.84;95522.47;5029513;28;20025;-65
2022/02/20 06:50:18;;;;;;;2.03;0.60;;;;;;;7.53;46.85;95493.69;5030195;28;20025;-65
2022/02/20 06:52:44;;;;;;;0.90;0.60;;;;;;;8.01;45.98;95529.06;5030892;28;20108;-65
2022/02/20 06:55:13;;;;;;;1.55;0.50;;;;;;;7.15;48.22;95513.75;5029456;28;20044;-65
2022/02/20 06:57:40;;;;;;;4.30;0.70;;;;;;;7.60;46.68;95486.22;5030978;28;20037;-65
2022/02/20 07:00:10;;;;;;;2.22;0.70;;;;;;;7.82;47.19;95534.22;5028833;28;20029;-66
2022/02/20 07:02:36;;;;;;;1.42;0.65;;;;;;;7.66;47.12;95529.31;5030542;28;20500;-67
2022/02/20 07:05:02;;;;;;;1.75;0.75;;;;;;;7.60;47.87;95523.28;5030949;28;20033;-66
2022/02/20 07:07:27;;;;;;;2.22;0.80;;;;;;;8.19;45.78;95506.41;5029340;28;20049;-65
2022/02/20 07:09:53;;;;;;;2.40;0.65;;;;;;;7.79;46.98;95507.53;5030268;28;20064;-66
2022/02/20 07:12:18;;;;;;;3.10;0.90;;;;;;;7.88;46.72;95536.84;5030472;28;20750;-65
2022/02/20 07:14:43;;;;;;;1.02;0.65;;;;;;;7.45;48.13;95518.09;5028811;28;20503;-66
2022/02/20 07:17:09;;;;;;;1.90;1.00;;;;;;;7.35;48.53;95529.50;5030226;28;20037;-65
2022/02/20 07:19:34;;;;;;;3.15;0.90;;;;;;;8.02;47.20;95554.47;5029016;28;20030;-65
2022/02/20 07:22:00;;;;;;;1.58;0.70;;;;;;;7.56;48.07;95543.41;5030125;28;20366;-66
2022/02/20 07:24:25;;;;;;;3.85;1.02;;;;;;;7.90;47.13;95547.97;5030580;28;20041;-66
2022/02/20 07:26:50;;;;;;;2.53;1.00;;;;;;;7.91;47.42;95526.50;5030755;28;20719;-66
2022/02/20 07:29:16;;;;;;;3.58;1.08;;;;;;;8.33;46.74;95543.63;5029853;28;20493;-65
2022/02/20 07:31:41;;;;;;;3.67;1.20;;;;;;;7.65;47.74;95528.53;5029873;28;20123;-65
2022/02/20 07:34:07;;;;;;;3.22;0.90;;;;;;;8.17;46.49;95550.13;5028999;28;20031;-65
2022/02/20 07:36:32;;;;;;;1.15;0.70;;;;;;;7.96;46.92;95531.75;5030315;28;20021;-65
2022/02/20 07:38:57;;;;;;;1.13;0.60;;;;;;;8.78;45.45;95549.56;5030208;28;20048;-66
2022/02/20 07:41:23;;;;;;;5.55;1.13;;;;;;;8.40;45.78;95514.19;5030164;28;20096;-66
2022/02/20 07:43:50;;;;;;;2.13;0.60;;;;;;;8.39;45.78;95502.78;5029974;28;20478;-65
2022/02/20 07:46:17;;;;;;;1.38;0.90;;;;;;;7.87;46.74;95533.41;5028880;28;20025;-65
2022/02/20 07:48:45;;;;;;;2.25;0.70;;;;;;;8.18;45.89;95544.53;5029932;28;20087;-66
2022/02/20 07:51:10;;;;;;;3.38;1.13;;;;;;;8.82;45.09;95546.06;5030076;28;20034;-65
2022/02/20 07:53:37;;;;;;;4.22;0.75;;;;;;;8.98;44.78;95537.94;5030307;28;20080;-67
2022/02/20 07:56:03;;;;;;;2.75;0.98;;;;;;;8.47;45.18;95533.19;5030056;28;20028;-66
2022/02/20 07:58:28;;;;;;;1.50;0.70;;;;;;;8.12;46.04;95547.53;5029433;28;20398;-66
2022/02/20 08:00:53;;;;;;;3.35;0.88;;;;;;;8.15;46.00;95534.53;5029685;28;20478;-65
2022/02/20 08:03:19;;;;;;;2.40;0.90;;;;;;;8.64;44.76;95538.84;5030145;28;20025;-68
2022/02/20 08:05:45;;;;;;;2.85;0.70;;;;;;;8.41;44.55;95513.91;5030176;28;20021;-65
2022/02/20 08:08:11;;;;;;;2.55;0.95;;;;;;;8.45;45.82;95591.81;5030234;28;20060;-65
2022/02/20 08:10:37;;;;;;;1.75;1.08;;;;;;;7.80;46.80;95532.94;5029802;28;20032;-65
2022/02/20 08:13:02;;;;;;;3.58;1.17;;;;;;;8.84;44.51;95553.75;5029646;28;20116;-65
2022/02/20 08:15:27;;;;;;;1.58;0.75;;;;;;;9.30;44.05;95579.75;5029866;28;20030;-66
2022/02/20 08:17:53;;;;;;;3.63;0.75;;;;;;;8.57;45.66;95556.94;5030015;28;20112;-64
2022/02/20 08:20:18;;;;;;;1.55;0.85;;;;;;;9.45;43.78;95554.88;5028210;28;20530;-63
2022/02/20 08:22:44;;;;;;;2.22;0.82;;;;;;;10.29;46.42;95573.59;5029922;28;20028;-68
2022/02/20 08:25:12;;;;;;;2.20;0.73;;;;;;;11.02;42.39;95593.34;5030186;28;20026;-69
2022/02/20 08:27:37;;;;;;;1.80;0.68;;;;;;;9.53;42.79;95552.38;5030044;28;20018;-65
2022/02/20 08:30:09;;;;;;;3.30;0.98;;;;;;;9.25;43.60;95596.53;5027757;28;20083;-63
2022/02/20 08:32:35;;;;;;;1.52;0.70;;;;;;;8.87;44.09;95536.50;5028446;28;20030;-63
2022/02/20 08:35:00;;;;;;;4.20;0.93;;;;;;;9.23;44.00;95566.84;5030880;28;20038;-65
2022/02/20 08:37:26;;;;;;;2.70;1.00;;;;;;;9.71;42.99;95587.97;5033445;28;20443;-65
2022/02/20 08:39:52;;;;;;;4.15;1.20;;;;;;;10.06;42.61;95585.88;5033288;28;20497;-64
2022/02/20 08:42:17;;;;;;;2.00;1.60;;;;;;;10.16;42.26;95593.69;5033301;28;20029;-64
2022/02/20 08:44:43;;;;;;;2.25;1.13;;;;;;;9.56;43.53;95580.22;5032863;28;20029;-65
2022/02/20 08:47:09;;;;;;;1.77;0.57;;;;;;;9.61;43.73;95590.75;5033072;28;20029;-66
2022/02/20 08:49:38;;;;;;;3.85;0.85;;;;;;;8.74;45.02;95591.78;5033352;28;20030;-68
2022/02/20 08:52:04;;;;;;;2.50;0.88;;;;;;;8.93;44.61;95549.41;5032644;28;20107;-70
2022/02/20 08:54:29;;;;;;;3.83;1.05;;;;;;;10.10;42.35;95573.59;5031881;28;20497;-67
2022/02/20 08:56:55;;;;;;;1.58;0.70;;;;;;;8.63;42.48;95351.66;5032828;28;20382;-66
2022/02/20 08:59:20;;;;;;;2.20;0.80;;;;;;;10.37;41.69;95520.53;5030849;28;20029;-68
2022/02/20 09:01:49;;;;;;;4.38;1.08;;;;;;;9.90;41.49;95479.03;5031223;28;20425;-70
2022/02/20 09:04:17;;;;;;;1.95;1.00;;;;;;;10.81;41.40;95583.06;5033112;28;20080;-68
2022/02/20 09:06:42;;;;;;;2.90;1.02;;;;;;;10.73;41.15;95543.03;5032796;28;20022;-70
2022/02/20 09:09:08;;;;;;;4.07;1.20;;;;;;;10.56;40.42;95499.19;5031496;28;20032;-68
2022/02/20 09:11:33;;;;;;;2.10;1.00;;;;;;;10.81;40.21;95550.34;5032588;28;20025;-69
2022/02/20 09:13:59;;;;;;;2.63;1.70;;;;;;;10.22;42.12;95519.97;5032029;28;20052;-68
2022/02/20 09:16:27;;;;;;;2.42;0.80;;;;;;;10.45;41.63;95542.22;5032475;28;20033;-68
2022/02/20 09:18:52;;;;;;;1.40;0.75;;;;;;;10.96;40.50;95477.41;5032397;28;20022;-69
2022/02/20 09:21:18;;;;;;;1.20;0.80;;;;;;;10.51;41.02;95525.88;5032373;28;20528;-65
2022/02/20 09:23:43;;;;;;;2.92;0.80;;;;;;;9.46;44.83;95551.13;5032586;28;20143;-63
2022/02/20 09:26:08;;;;;;;2.45;0.77;;;;;;;10.92;41.27;95549.84;5031447;28;20048;-66
2022/02/20 09:28:34;;;;;;;2.92;1.05;;;;;;;10.75;40.93;95543.53;5031807;28;20049;-65
2022/02/20 09:31:01;;;;;;;1.77;0.68;;;;;;;10.06;43.29;95546.03;5031236;28;20026;-67
2022/02/20 09:33:26;;;;;;;1.67;0.75;;;;;;;10.09;42.46;95519.66;5032144;28;20095;-67
2022/02/20 09:35:52;;;;;;;3.08;0.90;;;;;;;10.65;41.50;95536.53;5032321;28;20029;-66
2022/02/20 09:38:17;;;;;;;2.80;0.85;;;;;;;10.15;42.10;95497.22;5032186;28;20658;-68
2022/02/20 09:40:44;;;;;;;1.38;0.70;;;;;;;10.64;42.29;95535.72;5031750;28;20117;-69
2022/02/20 09:43:13;;;;;;;1.08;0.65;;;;;;;10.28;43.18;95554.19;5030966;28;20044;-67
2022/02/20 09:45:39;;;;;;;0.85;0.50;;;;;;;10.16;43.17;95513.94;5031170;28;20521;-67
2022/02/20 09:48:05;;;;;;;1.80;0.70;;;;;;;10.64;42.05;95511.00;5030745;28;20056;-67
2022/02/20 09:50:30;;;;;;;2.17;0.77;;;;;;;10.63;42.52;95510.22;5031636;28;20393;-68
2022/02/20 09:52:56;;;;;;;4.43;1.02;;;;;;;11.10;41.41;95520.75;5030802;28;20017;-69
2022/02/20 09:55:21;;;;;;;1.55;0.80;;;;;;;10.81;41.69;95459.88;5032208;28;20064;-68
2022/02/20 09:57:46;;;;;;;2.55;0.55;;;;;;;11.59;39.77;95519.19;5032197;28;20105;-69
2022/02/20 10:00:13;;;;;;;1.02;0.50;;;;;;;11.23;40.89;95493.34;5031382;28;20061;-68
2022/02/20 10:02:42;;;;;;;2.05;0.70;;;;;;;10.99;41.79;95517.50;5032027;28;20021;-68
2022/02/20 10:05:16;;;;;;;3.10;0.80;;;;;;;10.97;41.78;95524.22;5030450;28;20040;-69
2022/02/20 10:07:48;;;;;;;2.58;0.88;;;;;;;11.91;39.63;95478.25;5031822;28;20033;-67
2022/02/20 10:10:18;;;;;;;1.88;1.20;;;;;;;11.31;40.26;95466.00;5029854;28;20022;-70
2022/02/20 10:12:45;;;;;;;1.48;0.95;;;;;;;10.92;41.14;95498.50;5030249;28;20021;-69
2022/02/20 10:15:25;;;;;;;0.90;0.50;;;;;;;10.68;42.15;95512.00;5029653;28;20397;-67
2022/02/20 10:17:56;;;;;;;2.13;0.52;;;;;;;11.76;39.76;95487.34;5030086;28;20029;-67
2022/02/20 10:20:25;;;;;;;2.80;0.75;;;;;;;12.02;40.03;95506.22;5029664;28;20025;-68
2022/02/20 10:22:50;;;;;;;1.48;0.50;;;;;;;11.38;40.01;95466.38;5031377;28;20025;-67
2022/02/20 10:25:16;;;;;;;1.23;0.52;;;;;;;11.07;41.34;95473.44;5029957;28;20381;-69
2022/02/20 10:27:56;;;;;;;0.95;0.45;;;;;;;10.79;41.11;95521.34;5031173;28;20502;-68
2022/02/20 10:30:29;;;;;;;5.05;0.75;;;;;;;10.61;42.32;95495.66;5029019;28;20434;-67
2022/02/20 10:33:12;;;;;;;0.77;0.35;;;;;;;10.50;41.75;95473.00;5029871;28;20512;-68
2022/02/20 10:35:45;;;;;;;5.05;0.60;;;;;;;11.32;40.34;95486.22;5031157;28;20390;-67
2022/02/20 10:38:34;;;;;;;2.05;0.68;;;;;;;11.33;40.22;95439.06;5029458;28;20727;-67
2022/02/20 10:41:03;;;;;;;2.33;0.70;;;;;;;11.76;39.91;95457.25;5029457;28;20160;-68
2022/02/20 10:43:34;;;;;;;1.73;0.50;;;;;;;12.12;38.77;95470.53;5031177;28;20080;-67
2022/02/20 10:46:09;;;;;;;2.00;0.68;;;;;;;12.06;39.20;95479.75;5030173;28;20052;-67
2022/02/20 10:48:46;;;;;;;2.63;0.77;;;;;;;13.23;37.42;95466.72;5030639;28;20073;-68
2022/02/20 10:51:13;;;;;;;0.88;0.38;;;;;;;12.90;37.47;95474.34;5030741;28;20029;-71
2022/02/20 10:53:40;;;;;;;1.65;0.57;;;;;;;12.37;38.84;95472.53;5029454;28;20036;-71
2022/02/20 10:56:05;;;;;;;2.50;0.80;;;;;;;13.18;36.49;95436.69;5030380;28;20029;-72
2022/02/20 10:58:33;;;;;;;1.67;0.80;;;;;;;12.97;36.94;95433.81;5030417;28;20060;-70
2022/02/20 11:01:19;;;;;;;1.55;0.70;;;;;;;12.86;37.22;95430.66;5028780;28;20032;-71
2022/02/20 11:03:45;;;;;;;0.93;0.55;;;;;;;11.94;38.73;95409.13;5030778;28;20025;-71
2022/02/20 11:06:11;;;;;;;1.83;0.40;;;;;;;11.74;38.83;95440.78;5029370;28;20024;-70
2022/02/20 11:08:36;;;;;;;2.40;0.60;;;;;;;11.41;39.90;95401.88;5029106;28;20057;-71
2022/02/20 11:11:36;;;;;;;1.60;0.77;;;;;;;12.54;38.01;95396.34;5030369;28;20025;-69
2022/02/20 11:13:48;;;;;;;1.75;0.65;;;;;;;11.82;39.05;95400.88;5030585;28;20070;-69
2022/02/20 11:16:15;;;;;;;0.50;0.50;;;;;;;11.63;38.81;95365.66;5030015;28;20029;-68
2022/02/20 11:18:41;;;;;;;2.00;0.75;;;;;;;11.28;39.62;95410.69;5029205;28;20473;-68
2022/02/20 11:21:10;;;;;;;1.77;0.70;;;;;;;12.42;38.26;95403.06;5030317;28;20484;-69
2022/02/20 11:23:35;;;;;;;0.82;0.55;;;;;;;10.51;41.00;95379.59;5030654;28;20039;-69
2022/02/20 11:26:03;;;;;;;1.73;0.60;;;;;;;11.58;39.71;95387.09;5029126;28;20108;-68
2022/02/20 11:28:29;;;;;;;0.88;0.65;;;;;;;12.09;38.51;95413.28;5030279;28;20026;-69
2022/02/20 11:30:55;;;;;;;1.33;0.60;;;;;;;11.37;40.12;95394.78;5028414;28;20033;-68
2022/02/20 11:33:22;;;;;;;4.32;0.70;;;;;;;12.13;38.47;95387.59;5029042;28;20036;-70
2022/02/20 11:35:54;;;;;;;3.92;0.75;;;;;;;12.68;37.75;95402.34;5029121;28;20017;-67